Tiempo atmosférico en la estación meteorológica de Sardón De Duero, Valladolid (720 m.)



Fecha
DESCASC
Temp. máxima en grados centígrados (hora)
DESCASC
Temp. mínima en grados centígrados (hora)
DESCASC
Temp. media en grados centígrados
DESCASC
Racha de viento máxima en m/sg (hora)
DESCASC
Velocidad máxima media en intervalos de 10 minutos(hora)
DESCASC
Precipitaciones diarias en mm
DESCASC
Precipitaciones de 00:00 a 06:00 en mm
DESCASC
Precipitaciones de 06:00 a 12:00 en mm
DESCASC
Precipitaciones de 12:00 a 18:00 en mm
DESCASC
Precipitaciones de 18:00 a 24:00 en mm
DESCASC
29-03-2020 19.1 (16:40) -2.7 (07:40) 8.2 9.44 (20:10) 4.17 (23:59) 0 0 0 0 0
28-03-2020 20.1 (18:00) -4.7 (07:20) 7.7 6.39 (15:00) 2.78 (15:00) 0 0 0 0 0
27-03-2020 16.8 (17:30) -3.5 (07:30) 6.6 10 (12:40) 4.72 (11:50) 0 0 0 0 0
26-03-2020 15.4 (15:40) -4.2 (-00:0) 5.6 8.33 (23:50) 3.61 (21:50) 0 0 0 0 0
25-03-2020 19.9 (17:40) -0.7 (-00:0) 9.6 6.39 (15:00) 3.33 (12:30) 0 0 0 0 0
24-03-2020 19.3 (15:50) 3 (00:00) 11.1 10.83 (10:40) 5.28 (10:50) 0 0 0 0 0
23-03-2020 18.5 (17:40) 2.2 (00:00) 10.4 10 (18:30) 4.72 (18:30) 0.2 0 0.2 0 0
22-03-2020 16 (13:50) 3.6 (23:59) 9.8 6.67 (16:00) 3.61 (15:20) 3.4 1.8 0 1.6 0
21-03-2020 17.1 (12:00) 1.1 (00:00) 9.1 8.61 (18:40) 5.83 (18:40) 0.2 0 0 0 0.2
20-03-2020 18.9 (15:10) 3.7 (00:00) 11.3 6.94 (13:50) 3.89 (17:20) 0 0 0 0 0
19-03-2020 18.3 (14:10) 4.3 (00:00) 11.3 3.61 (11:50) 1.67 (10:10) 0 0 0 0 0
18-03-2020 21.8 (15:10) 6.2 (00:00) 14 6.11 (10:40) 2.78 (10:40) 0 0 0 0 0
17-03-2020 18.7 (16:30) 5.7 (00:00) 12.2 12.5 (02:20) 6.11 (02:20) 1.2 0 1.2 0 0
16-03-2020 6.7 (14:00) 1.9 (00:00) 4.3 15 (17:50) 6.67 (14:10) 7.8 0.2 3.4 0.8 3.4
15-03-2020 21.7 (16:10) -2.9 (-00:0) 9.4 15 (16:20) 9.72 (16:20) 0 0 0 0 0
14-03-2020 22.7 (16:40) -3.5 (-00:0) 9.6 3.89 (13:00) 1.94 (14:20) 0 0 0 0 0
13-03-2020 19.2 (14:50) 2.4 (23:59) 10.8 8.33 (07:50) 4.17 (17:10) 0 0 0 0 0
12-03-2020 25.6 (14:20) 5.7 (00:00) 15.7 8.33 (20:10) 3.61 (19:20) 0 0 0 0 0
11-03-2020 25.1 (15:10) -0.5 (-00:0) 12.3 5.28 (14:30) 3.33 (16:10) 0 0 0 0 0
10-03-2020 22.8 (16:40) -0.7 (-00:0) 11 7.22 (16:40) 4.44 (15:10) 0 0 0 0 0
09-03-2020 16.8 (16:00) -0.3 (00:00) 8.2 7.22 (15:50) 3.89 (01:10) 0 0 0 0 0
08-03-2020 15.1 (16:50) -3 (-00:0) 6.1 7.78 (17:50) 5 (17:40) 0 0 0 0 0
07-03-2020 15.5 (16:40) -2.7 (-00:0) 6.4 5.56 (14:50) 3.33 (14:40) 0 0 0 0 0
06-03-2020 10.6 (15:40) 0 (00:00) 5.3 12.5 (12:20) 6.94 (09:50) 0 0 0 0 0
05-03-2020 13.5 (14:50) 5.3 (00:00) 9.4 18.06 (09:20) 11.11 (09:20) 2.8 0 0.4 2.4 0
04-03-2020 15.8 (15:10) 10.8 (08:00) 13.3 10.28 (13:00) 6.39 (11:50) 0 0 0 0 0
03-03-2020 18.1 (17:10) 3.8 (00:00) 11 16.39 (14:40) 10.28 (14:40) 1 0.6 0.4 0 0
02-03-2020 11.4 (04:30) 2.5 (00:00) 6.9 25.28 (04:50) 15.56 (04:50) 4 1.6 0.6 1.8 0
01-03-2020 16.7 (16:00) 6.8 (00:00) 11.8 16.67 (16:20) 11.11 (17:20) 9.4 0 0.4 0 9
29-02-2020 13.3 (13:20) 7.6 (00:00) 10.5 14.72 (14:00) 9.72 (13:00) 0.4 0 0 0.4 0

Gráficas

Temp. máximas Temp. mínimas Temp. medias Precipitaciones Rachas de viento máximas Velocidades máximas media en intervalos de 10 minutos

Datos horarios

Fecha y hora oficial Temperatura (ºC) Velocidad del viento (km/h) Dirección del viento Racha (km/h) Dirección de racha Precipitación (mm) Presión (hPa) Tendencia (hPa) Humedad (%)
2020-03-29 23:00:00 6.7 14 Este 30 Este 0 -- -- 76
2020-03-29 22:00:00 8 14 Este 30 Este 0 -- -- 68
2020-03-29 21:00:00 9.9 12 Nordeste 34 Nordeste 0 -- -- 55
2020-03-29 20:00:00 13.6 13 Nordeste 30 Nordeste 0 -- -- 43
2020-03-29 19:00:00 17 9 Nordeste 21 Nordeste 0 -- -- 35
2020-03-29 18:00:00 18.3 9 Nordeste 21 Norte 0 -- -- 34
2020-03-29 17:00:00 19 7 Nordeste 19 Nordeste 0 -- -- 32
2020-03-29 16:00:00 18.3 7 Norte 21 Norte 0 -- -- 33
2020-03-29 15:00:00 18 8 Nordeste 19 Norte 0 -- -- 34
2020-03-29 14:00:00 17.7 8 Nordeste 19 Nordeste 0 -- -- 38
2020-03-29 13:00:00 15.7 7 Nordeste 16 Este 0 -- -- 45
2020-03-29 12:00:00 14.3 5 Nordeste 10 Nordeste 0 -- -- 49
2020-03-29 11:00:00 9.7 2 Oeste 5 Norte 0 -- -- 61
2020-03-29 10:00:00 4.7 2 Este 5 Este 0 -- -- 84
2020-03-29 09:00:00 -0.8 0 Calma 2 Este 0 -- -- 100
2020-03-29 08:00:00 -2.6 2 Este 4 Nordeste 0 -- -- 100
2020-03-29 07:00:00 -2.6 0 Calma -- -- 0 -- -- 99
2020-03-29 06:00:00 -2.2 0 Calma 4 Este 0 -- -- 98
2020-03-29 05:00:00 -1.9 0 Calma 3 Este 0 -- -- 98
2020-03-29 03:00:00 -1 0 Calma 5 Este 0 -- -- 95
2020-03-29 01:00:00 -0.2 0 Calma 2 Sudoeste 0 -- -- 89
2020-03-29 00:00:00 0.8 0 Calma 4 Este 0 -- -- 90
2020-03-28 23:00:00 1.9 0 Calma 4 Sur 0 -- -- 84
2020-03-28 22:00:00 3.5 0 Calma 3 Sur 0 -- -- 76
2020-03-28 21:00:00 5.4 0 Calma 4 Sudeste 0 -- -- 70
2020-03-28 20:00:00 7.7 4 Sudeste 6 Este 0 -- -- 64
2020-03-28 19:00:00 16.6 3 Nordeste 13 Nordeste 0 -- -- 38
2020-03-28 18:00:00 20.1 5 Este 14 Este 0 -- -- 28
2020-03-28 17:00:00 19.4 9 Nordeste 20 Nordeste 0 -- -- 28
2020-03-28 16:00:00 19.2 9 Nordeste 22 Norte 0 -- -- 27
2020-03-28 15:00:00 18.2 10 Nordeste 23 Norte 0 -- -- 26
2020-03-28 14:00:00 17 9 Nordeste 21 Nordeste 0 -- -- 28
2020-03-28 13:00:00 16.1 7 Nordeste 17 Nordeste 0 -- -- 26
2020-03-28 12:00:00 15.5 6 Este 17 Nordeste 0 -- -- 32
2020-03-28 11:00:00 11.9 8 Nordeste 17 Este 0 -- -- 45
2020-03-28 10:00:00 6.6 6 Nordeste 10 Nordeste 0 -- -- 60
2020-03-28 09:00:00 2.4 4 Este 8 Nordeste 0 -- -- 72
2020-03-28 08:00:00 -3.4 2 Este 4 Este 0 -- -- 95
2020-03-28 07:00:00 -4.6 0 Calma 3 Este 0 -- -- 94
2020-03-28 06:00:00 -4 0 Calma 3 Nordeste 0 -- -- 92
2020-03-28 05:00:00 -3.7 2 Este 4 Nordeste 0 -- -- 89
2020-03-28 04:00:00 -3.3 2 Este 5 Este 0 -- -- 88
2020-03-28 03:00:00 -3.2 0 Calma 5 Este 0 -- -- 86
2020-03-28 02:00:00 -1.9 0 Calma 8 Este 0 -- -- 79
2020-03-28 01:00:00 -2.3 4 Este 7 Este 0 -- -- 80
2020-03-28 00:00:00 -1.7 3 Este 6 Este 0 -- -- 75
2020-03-27 23:00:00 -0.4 0 Calma 6 Este 0 -- -- 71
2020-03-27 22:00:00 0.2 5 Este 8 Este 0 -- -- 71
2020-03-27 21:00:00 2 0 Calma 6 Nordeste 0 -- -- 66
2020-03-27 20:00:00 6 2 Nordeste 8 Este 0 -- -- 55
2020-03-27 19:00:00 14.5 7 Este 22 Este 0 -- -- 28
2020-03-27 18:00:00 15.9 7 Sudeste 24 Sur 0 -- -- 26
2020-03-27 17:00:00 14.8 12 Sudeste 23 Sudeste 0 -- -- 28
2020-03-27 16:00:00 14.9 12 Sudeste 33 Este 0 -- -- 28
2020-03-27 15:00:00 15.8 12 Este 27 Este 0 -- -- 29
2020-03-27 14:00:00 14.9 11 Este 33 Nordeste 0 -- -- 34
2020-03-27 13:00:00 13.2 11 Este 36 Este 0 -- -- 38
2020-03-27 12:00:00 11.2 17 Este 35 Este 0 -- -- 42
2020-03-27 11:00:00 9 13 Nordeste 35 Este 0 -- -- 48
2020-03-27 10:00:00 5.7 13 Nordeste 30 Este 0 -- -- 55
2020-03-27 09:00:00 1.9 11 Este 21 Este 0 -- -- 63
2020-03-27 08:00:00 -2.8 0 Calma 5 Este 0 -- -- 90
2020-03-27 07:00:00 -3.1 3 Nordeste 8 Nordeste 0 -- -- 88
2020-03-27 06:00:00 -2.2 3 Nordeste 20 Este 0 -- -- 82
2020-03-27 05:00:00 -1 6 Nordeste 15 Este 0 -- -- 80
2020-03-27 04:00:00 -1.8 3 Nordeste 10 Nordeste 0 -- -- 87
2020-03-27 03:00:00 -0.6 3 Este 19 Este 0 -- -- 82
2020-03-27 02:00:00 2.4 11 Nordeste 26 Nordeste 0 -- -- 71
2020-03-27 01:00:00 3.8 9 Nordeste 26 Nordeste 0 -- -- 63
2020-03-27 00:00:00 4.3 9 Nordeste 30 Este 0 -- -- 66
2020-03-26 23:00:00 5.5 9 Nordeste 28 Nordeste 0 -- -- 65
2020-03-26 22:00:00 5.4 10 Este 26 Nordeste 0 -- -- 67
2020-03-26 21:00:00 5.3 6 Este 21 Nordeste 0 -- -- 66
2020-03-26 20:00:00 6.6 10 Nordeste 24 Nordeste 0 -- -- 61
2020-03-26 19:00:00 9.5 9 Este 24 Este 0 -- -- 52
2020-03-26 18:00:00 13.1 8 Este 22 Nordeste 0 -- -- 44
2020-03-26 17:00:00 15 12 Este 26 Nordeste 0 -- -- 40
2020-03-26 16:00:00 14.5 7 Nordeste 24 Nordeste 0 -- -- 37
2020-03-26 15:00:00 14.8 9 Nordeste 26 Este 0 -- -- 39
2020-03-26 14:00:00 13.4 12 Nordeste 30 Nordeste 0 -- -- 40
2020-03-26 13:00:00 12.9 10 Nordeste 24 Nordeste 0 -- -- 38
2020-03-26 12:00:00 11.7 9 Nordeste 23 Norte 0 -- -- 44
2020-03-26 11:00:00 9.6 10 Nordeste 24 Este 0 -- -- 52
2020-03-26 10:00:00 6.7 2 Noroeste 6 Norte 0 -- -- 61
2020-03-26 09:00:00 1.7 0 Calma 4 Sudoeste 0 -- -- 79
2020-03-26 08:00:00 -3.2 0 Calma 2 Oeste 0 -- -- 96
2020-03-26 07:00:00 -4 0 Calma 2 Sudoeste 0 -- -- 95
2020-03-26 06:00:00 -3.4 2 Sudoeste 3 Sur 0 -- -- 97
2020-03-26 05:00:00 -3 0 Calma 4 Sudeste 0 -- -- 97
2020-03-26 04:00:00 -2.8 0 Calma 3 Sur 0 -- -- 95
2020-03-26 03:00:00 -0.2 2 Sur 10 Este 0 -- -- 86
2020-03-26 02:00:00 1.3 3 Nordeste 10 Este 0 -- -- 82
2020-03-26 01:00:00 1.2 2 Este 9 Este 0 -- -- 73
2020-03-26 00:00:00 3.1 4 Nordeste 8 Este 0 -- -- 62
2020-03-25 23:00:00 3.8 4 Este 9 Nordeste 0 -- -- 61
2020-03-25 22:00:00 6.3 4 Nordeste 19 Nordeste 0 -- -- 51
2020-03-25 21:00:00 9.6 8 Nordeste 20 Este 0 -- -- 40
2020-03-25 20:00:00 8.6 6 Este 9 Este 0 -- -- 65
2020-03-25 19:00:00 18.8 3 Norte 14 Norte 0 -- -- 31
2020-03-25 18:00:00 19.4 6 Norte 18 Nordeste 0 -- -- 27
2020-03-25 17:00:00 19 9 Norte 20 Este 0 -- -- 26
2020-03-25 16:00:00 19 9 Norte 22 Noroeste 0 -- -- 26
2020-03-25 15:00:00 18.1 11 Norte 23 Norte 0 -- -- 37
2020-03-25 14:00:00 17.6 8 Noroeste 22 Oeste 0 -- -- 39
2020-03-25 13:00:00 16.2 10 Oeste 21 Sudoeste 0 -- -- 51
2020-03-25 12:00:00 14.7 10 Oeste 17 Oeste 0 -- -- 54
2020-03-25 11:00:00 14.1 0 Calma 8 Noroeste 0 -- -- 60
2020-03-25 10:00:00 9.7 2 Oeste 6 Oeste 0 -- -- 73
2020-03-25 09:00:00 5 0 Calma 6 Nordeste 0 -- -- 96
2020-03-25 08:00:00 1.4 2 Este 9 Este 0 -- -- 100
2020-03-25 07:00:00 -0.6 3 Este 4 Este 0 -- -- 100
2020-03-25 06:00:00 -0.4 0 Calma 3 Este 0 -- -- 100
2020-03-25 05:00:00 2.1 0 Calma 4 Este 0 -- -- 100
2020-03-25 04:00:00 2.4 0 Calma 2 Este 0 -- -- 99
2020-03-25 03:00:00 2.7 0 Calma 5 Nordeste 0 -- -- 98
2020-03-25 02:00:00 2.4 3 Este 6 Nordeste 0 -- -- 98
2020-03-25 01:00:00 1.7 4 Este 5 Este 0 -- -- 96
2020-03-25 00:00:00 3 0 Calma 5 Nordeste 0 -- -- 94
2020-03-24 23:00:00 4 4 Este 6 Este 0 -- -- 92
2020-03-24 22:00:00 4.5 4 Nordeste 6 Nordeste 0 -- -- 90
2020-03-24 21:00:00 6.5 3 Nordeste 11 Este 0 -- -- 81
2020-03-24 20:00:00 9.1 4 Este 10 Este 0 -- -- 73
2020-03-24 19:00:00 15.9 5 Este 23 Este 0 -- -- 50
2020-03-24 18:00:00 18 11 Este 26 Este 0 -- -- 42
2020-03-24 17:00:00 18 13 Este 32 Nordeste 0 -- -- 43
2020-03-24 16:00:00 19.2 11 Este 33 Este 0 -- -- 40
2020-03-24 15:00:00 16.5 16 Este 36 Nordeste 0 -- -- 47
2020-03-24 14:00:00 17.8 15 Este 34 Este 0 -- -- 46
2020-03-24 13:00:00 15.1 14 Este 37 Este 0 -- -- 54
2020-03-24 12:00:00 15 15 Este 39 Este 0 -- -- 57
2020-03-24 11:00:00 12.7 17 Este 39 Este 0 -- -- 63
2020-03-24 10:00:00 12 13 Este 35 Este 0 -- -- 70
2020-03-24 09:00:00 9.3 9 Nordeste 29 Nordeste 0 -- -- 84
2020-03-24 08:00:00 3.9 2 Nordeste 8 Nordeste 0 -- -- 100
2020-03-24 07:00:00 4 3 Nordeste 12 Nordeste 0 -- -- 100
2020-03-24 06:00:00 5.1 8 Nordeste 13 Nordeste 0 -- -- 100
2020-03-24 05:00:00 4.8 6 Nordeste 12 Este 0 -- -- 100
2020-03-24 04:00:00 5.3 6 Nordeste 16 Nordeste 0 -- -- 99
2020-03-24 03:00:00 5 4 Nordeste 13 Nordeste 0 -- -- 98
2020-03-24 02:00:00 5.5 6 Este 13 Este 0 -- -- 98
2020-03-24 01:00:00 5.4 6 Nordeste 12 Este 0 -- -- 98
2020-03-24 00:00:00 4.9 5 Nordeste 9 Nordeste 0 -- -- 97
2020-03-23 23:00:00 5.5 5 Nordeste 10 Nordeste 0 -- -- 94
2020-03-23 22:00:00 6.5 5 Nordeste 10 Nordeste 0 -- -- 91
2020-03-23 21:00:00 7.1 4 Nordeste 8 Nordeste 0 -- -- 86
2020-03-23 20:00:00 9.1 3 Nordeste 21 Sudeste 0 -- -- 76
2020-03-23 19:00:00 12 13 Sudeste 36 Este 0 -- -- 66
2020-03-23 18:00:00 17.7 9 Este 25 Este 0 -- -- 49
2020-03-23 17:00:00 16.6 13 Este 32 Nordeste 0 -- -- 50
2020-03-23 16:00:00 16.3 10 Este 31 Este 0 -- -- 52
2020-03-23 15:00:00 18 12 Este 32 Este 0 -- -- 49
2020-03-23 14:00:00 15.5 13 Este 31 Este 0 -- -- 54
2020-03-23 13:00:00 15.8 12 Este 33 Este 0 -- -- 53
2020-03-23 12:00:00 14.3 14 Este 35 Este 0 -- -- 61
2020-03-23 11:00:00 14.1 15 Este 30 Este 0 -- -- 65
2020-03-23 10:00:00 11.2 12 Este 27 Nordeste 0 -- -- 75
2020-03-23 09:00:00 7.4 10 Este 22 Nordeste 0 -- -- 96
2020-03-23 08:00:00 3 2 Este 10 Este 0 -- -- 100
2020-03-23 07:00:00 2.9 6 Nordeste 9 Este 0.2 -- -- 100
2020-03-23 06:00:00 2.6 3 Este 13 Este 0 -- -- 100
2020-03-23 05:00:00 3.2 3 Nordeste 12 Nordeste 0 -- -- 100
2020-03-23 04:00:00 3.5 6 Este 11 Nordeste 0 -- -- 100
2020-03-23 03:00:00 3.6 5 Nordeste 11 Nordeste 0 -- -- 100
2020-03-23 02:00:00 2.6 3 Este 6 Este 0 -- -- 100
2020-03-23 01:00:00 2.9 3 Este 8 Este 0 -- -- 100
2020-03-23 00:00:00 3.6 3 Este 5 Este 0 -- -- 99
2020-03-22 23:00:00 5.5 3 Este 7 Este 0 -- -- 98
2020-03-22 22:00:00 7.4 4 Este 6 Este 0 -- -- 94
2020-03-22 21:00:00 8.9 4 Este 12 Este 0 -- -- 92
2020-03-22 20:00:00 9.5 5 Nordeste 15 Este 0 -- -- 87
2020-03-22 19:00:00 10.5 7 Este 15 Este 0 -- -- 85
2020-03-22 18:00:00 11.2 5 Este 9 Este 0 -- -- 85
2020-03-22 17:00:00 9.6 0 Calma 23 Este 1.2 -- -- 90
2020-03-22 16:00:00 11.7 12 Este 24 Este 0.4 -- -- 75
2020-03-22 15:00:00 15.2 2 Norte 8 Sudoeste 0 -- -- 61
2020-03-22 14:00:00 15.1 3 Norte 17 Este 0 -- -- 68
2020-03-22 13:00:00 15.4 4 Este 17 Sudeste 0 -- -- 67
2020-03-22 12:00:00 11.5 3 Norte 5 Noroeste 0 -- -- 81
2020-03-22 11:00:00 10.4 3 Este 6 Este 0 -- -- 87
2020-03-22 10:00:00 9 2 Nordeste 4 Este 0 -- -- 92
2020-03-22 09:00:00 7.7 0 Calma 2 Sur 0 -- -- 100
2020-03-22 08:00:00 6.6 0 Calma 3 Sudeste 0 -- -- 100
2020-03-22 07:00:00 6.5 0 Calma 4 Este 0 -- -- 100
2020-03-22 06:00:00 6.5 0 Calma 3 Este 0 -- -- 100
2020-03-22 05:00:00 6.4 0 Calma 3 Este 0 -- -- 100
2020-03-22 04:00:00 6.2 0 Calma 3 Este 0.2 -- -- 100
2020-03-22 03:00:00 6.3 2 Este 4 Sudeste 0.2 -- -- 99
2020-03-22 02:00:00 6.6 0 Calma 4 Este 0.8 -- -- 98
2020-03-22 01:00:00 6.9 2 Este 5 Nordeste 0.6 -- -- 97
2020-03-22 00:00:00 7.3 0 Calma 12 Sudoeste 0.2 -- -- 92
2020-03-21 23:00:00 8 5 Sudoeste 10 Sudoeste 0 -- -- 87
2020-03-21 22:00:00 8.6 3 Oeste 5 Sudoeste 0 -- -- 87
2020-03-21 21:00:00 8.7 4 Sudoeste 9 Oeste 0 -- -- 84
2020-03-21 20:00:00 8.9 9 Sudoeste 22 Sudoeste 0 -- -- 83
2020-03-21 19:00:00 9.6 17 Sur 31 Sur 0 -- -- 82
2020-03-21 18:00:00 11.9 13 Sudoeste 22 Sudoeste 0 -- -- 71
2020-03-21 17:00:00 13.2 15 Oeste 21 Sudoeste 0 -- -- 66
2020-03-21 16:00:00 13.9 11 Oeste 18 Noroeste 0 -- -- 59
2020-03-21 15:00:00 13.9 11 Oeste 21 Oeste 0 -- -- 62
2020-03-21 14:00:00 15.2 12 Oeste 23 Sudoeste 0 -- -- 57
2020-03-21 13:00:00 14.8 11 Oeste 17 Sudoeste 0 -- -- 60
2020-03-21 12:00:00 17.1 5 Sudeste 17 Sudeste 0 -- -- 53
2020-03-21 11:00:00 14.4 4 Nordeste 19 Este 0 -- -- 64
2020-03-21 10:00:00 10.8 11 Este 23 Este 0 -- -- 78
2020-03-21 09:00:00 6.2 5 Nordeste 10 Nordeste 0 -- -- 100
2020-03-21 08:00:00 2.3 0 Calma 4 Este 0 -- -- 100
2020-03-21 07:00:00 1.6 2 Este 4 Nordeste 0 -- -- 100
2020-03-21 06:00:00 2.5 3 Sudoeste 7 Nordeste 0 -- -- 100
2020-03-21 05:00:00 2.1 3 Este 8 Nordeste 0 -- -- 100
2020-03-21 04:00:00 1.9 0 Calma 4 Este 0 -- -- 100
2020-03-21 03:00:00 2.5 2 Sudeste 4 Este 0 -- -- 99
2020-03-21 02:00:00 4.1 2 Sudoeste 5 Sudoeste 0 -- -- 99
2020-03-21 01:00:00 4.6 2 Este 6 Nordeste 0 -- -- 97
2020-03-21 00:00:00 6.3 2 Nordeste 9 Nordeste 0 -- -- 93
2020-03-20 23:00:00 7.8 3 Norte 13 Este 0 -- -- 89
2020-03-20 22:00:00 7.1 4 Este 7 Este 0 -- -- 92
2020-03-20 21:00:00 8.4 3 Sudeste 10 Sudoeste 0 -- -- 89
2020-03-20 20:00:00 11.3 5 Sudoeste 21 Sudoeste 0 -- -- 76
2020-03-20 19:00:00 13.7 8 Sudoeste 18 Sudoeste 0 -- -- 66
2020-03-20 18:00:00 15.1 12 Sudoeste 21 Sudoeste 0 -- -- 59
2020-03-20 17:00:00 16.3 9 Sudoeste 17 Sudoeste 0 -- -- 56
2020-03-20 16:00:00 16.8 8 Oeste 19 Sur 0 -- -- 53
2020-03-20 15:00:00 17.5 8 Sur 25 Sudoeste 0 -- -- 52
2020-03-20 14:00:00 17.4 8 Sudeste 25 Sudoeste 0 -- -- 54
2020-03-20 13:00:00 15.9 5 Sudeste 16 Nordeste 0 -- -- 58
2020-03-20 12:00:00 14.9 6 Nordeste 15 Nordeste 0 -- -- 68
2020-03-20 11:00:00 11.7 4 Nordeste 15 Este 0 -- -- 80
2020-03-20 10:00:00 8.9 4 Este 10 Este 0 -- -- 99
2020-03-20 09:00:00 6.2 3 Este 6 Este 0 -- -- 100
2020-03-20 08:00:00 4.2 2 Este 4 Este 0 -- -- 100
2020-03-20 07:00:00 3.7 2 Sudeste 4 Sudeste 0 -- -- 100
2020-03-20 06:00:00 4.5 0 Calma 4 Este 0 -- -- 100
2020-03-20 05:00:00 4.8 3 Este 6 Nordeste 0 -- -- 100
2020-03-20 04:00:00 4.3 3 Este 5 Este 0 -- -- 100
2020-03-20 03:00:00 4.3 2 Este 5 Nordeste 0 -- -- 100
2020-03-20 02:00:00 5 4 Este 5 Este 0 -- -- 100
2020-03-20 01:00:00 5.6 3 Este 6 Este 0 -- -- 100
2020-03-20 00:00:00 6.5 2 Este 4 Este 0 -- -- 99
2020-03-19 23:00:00 7.1 0 Calma 6 Nordeste 0 -- -- 98
2020-03-19 22:00:00 8.1 0 Calma 4 Este 0 -- -- 96
2020-03-19 21:00:00 10 0 Calma 4 Sudoeste 0 -- -- 92
2020-03-19 20:00:00 11.7 4 Sur 5 Sudoeste 0 -- -- 86
2020-03-19 19:00:00 13.9 0 Calma 3 Nordeste 0 -- -- 79
2020-03-19 18:00:00 17.1 0 Calma 7 Este 0 -- -- 63
2020-03-19 17:00:00 17.9 2 Este 11 Sudeste 0 -- -- 55
2020-03-19 16:00:00 17.3 2 Sudeste 8 Nordeste 0 -- -- 55
2020-03-19 15:00:00 17.2 4 Nordeste 11 Norte 0 -- -- 56
2020-03-19 14:00:00 17.8 3 Sudeste 10 Sur 0 -- -- 58
2020-03-19 13:00:00 16.7 5 Sudeste 10 Nordeste 0 -- -- 60
2020-03-19 12:00:00 16.3 3 Nordeste 13 Este 0 -- -- 62
2020-03-19 11:00:00 14.1 4 Nordeste 12 Este 0 -- -- 70
2020-03-19 10:00:00 10.9 4 Nordeste 12 Este 0 -- -- 91
2020-03-19 09:00:00 7.7 0 Calma 4 Nordeste 0 -- -- 100
2020-03-19 08:00:00 4.9 0 Calma 2 Sudeste 0 -- -- 100
2020-03-19 07:00:00 4.5 0 Calma 5 Este 0 -- -- 100
2020-03-19 06:00:00 4.8 0 Calma 5 Este 0 -- -- 100
2020-03-19 05:00:00 4.4 0 Calma 3 Este 0 -- -- 100
2020-03-19 04:00:00 5 0 Calma 5 Este 0 -- -- 100
2020-03-19 03:00:00 5.6 0 Calma 4 Este 0 -- -- 100
2020-03-19 02:00:00 6.2 3 Este 7 Nordeste 0 -- -- 99
2020-03-19 01:00:00 6.9 0 Calma 6 Nordeste 0 -- -- 99
2020-03-19 00:00:00 7.1 0 Calma 6 Este 0 -- -- 98
2020-03-18 23:00:00 7.6 3 Este 6 Nordeste 0 -- -- 96
2020-03-18 22:00:00 9.1 0 Calma 5 Norte 0 -- -- 94
2020-03-18 21:00:00 9.6 0 Calma 6 Nordeste 0 -- -- 95
2020-03-18 20:00:00 10.7 3 Este 5 Sudeste 0 -- -- 89
2020-03-18 19:00:00 14.6 2 Sudeste 4 Sudeste 0 -- -- 81
2020-03-18 18:00:00 18.5 0 Calma 5 Nordeste 0 -- -- 69
2020-03-18 17:00:00 20.1 4 Nordeste 10 Norte 0 -- -- 44
2020-03-18 16:00:00 20.2 5 Nordeste 10 Nordeste 0 -- -- 46
2020-03-18 15:00:00 21.1 4 Este 12 Norte 0 -- -- 51
2020-03-18 14:00:00 20.1 3 Nordeste 13 Norte 0 -- -- 53
2020-03-18 13:00:00 16.8 5 Nordeste 13 Nordeste 0 -- -- 64
2020-03-18 12:00:00 14.5 5 Nordeste 18 Nordeste 0 -- -- 72
2020-03-18 11:00:00 13 9 Nordeste 22 Nordeste 0 -- -- 76
2020-03-18 10:00:00 10.5 4 Nordeste 14 Este 0 -- -- 87
2020-03-18 09:00:00 7.6 0 Calma 11 Nordeste 0 -- -- 99
2020-03-18 08:00:00 6.6 4 Nordeste 9 Este 0 -- -- 100
2020-03-18 07:00:00 6.3 4 Nordeste 8 Nordeste 0 -- -- 100
2020-03-18 06:00:00 6.4 0 Calma 10 Nordeste 0 -- -- 99
2020-03-18 05:00:00 7 2 Nordeste 10 Nordeste 0 -- -- 99
2020-03-18 04:00:00 7.1 3 Nordeste 10 Nordeste 0 -- -- 99
2020-03-18 03:00:00 7 0 Calma 13 Nordeste 0 -- -- 97
2020-03-18 02:00:00 8.2 5 Este 15 Este 0 -- -- 95
2020-03-18 01:00:00 8.5 5 Nordeste 17 Este 0 -- -- 94
2020-03-18 00:00:00 8.9 8 Este 15 Este 0 -- -- 93
2020-03-17 23:00:00 9.4 5 Nordeste 19 Este 0 -- -- 90
2020-03-17 22:00:00 10.3 9 Este 23 Este 0 -- -- 88
2020-03-17 21:00:00 11.3 6 Nordeste 27 Este 0 -- -- 83
2020-03-17 20:00:00 11.7 7 Este 19 Este 0 -- -- 83
2020-03-17 19:00:00 13.8 9 Este 28 Este 0 -- -- 76
2020-03-17 18:00:00 17.3 12 Este 29 Nordeste 0 -- -- 62
2020-03-17 17:00:00 16.8 12 Nordeste 35 Este 0 -- -- 65
2020-03-17 16:00:00 15.3 14 Este 31 Nordeste 0 -- -- 69
2020-03-17 15:00:00 17.9 16 Este 38 Este 0 -- -- 63
2020-03-17 14:00:00 15.3 17 Este 39 Este 0 -- -- 70
2020-03-17 13:00:00 14.4 17 Este 32 Este 0 -- -- 73
2020-03-17 12:00:00 10.4 14 Nordeste 33 Este 0 -- -- 84
2020-03-17 11:00:00 10.6 16 Nordeste 35 Nordeste 0 -- -- 82
2020-03-17 10:00:00 9.1 10 Nordeste 27 Este 0 -- -- 86
2020-03-17 09:00:00 7.2 12 Este 28 Este 0.2 -- -- 93
2020-03-17 08:00:00 6.1 9 Este 27 Nordeste 0.4 -- -- 97
2020-03-17 07:00:00 6.2 9 Nordeste 28 Nordeste 0.6 -- -- 95
2020-03-17 06:00:00 6.5 14 Este 35 Este 0 -- -- 90
2020-03-17 05:00:00 6.7 11 Nordeste 25 Este 0 -- -- 85
2020-03-17 04:00:00 6.6 9 Este 29 Nordeste 0 -- -- 87
2020-03-17 03:00:00 6.8 12 Nordeste 45 Nordeste 0 -- -- 83
2020-03-17 02:00:00 6.4 21 Este 43 Este 0 -- -- 84
2020-03-17 01:00:00 5.9 15 Este 40 Nordeste 0 -- -- 85
2020-03-17 00:00:00 5.9 16 Este 41 Este 0.2 -- -- 88
2020-03-16 23:00:00 6 15 Nordeste 42 Nordeste 0 -- -- 89
2020-03-16 22:00:00 6 19 Nordeste 45 Nordeste 0 -- -- 91
2020-03-16 21:00:00 5.5 15 Nordeste 50 Este 0.4 -- -- 96
2020-03-16 20:00:00 5.8 18 Nordeste 43 Nordeste 0.2 -- -- 95
2020-03-16 19:00:00 5.5 18 Nordeste 45 Este 2.6 -- -- 97
2020-03-16 18:00:00 5.8 17 Nordeste 54 Nordeste 0.2 -- -- 91
2020-03-16 17:00:00 6.6 19 Nordeste 46 Este 0 -- -- 84
2020-03-16 16:00:00 5.8 19 Nordeste 50 Este 0.6 -- -- 89
2020-03-16 15:00:00 6.5 23 Nordeste 52 Nordeste 0 -- -- 80
2020-03-16 14:00:00 6.7 19 Nordeste 51 Norte 0 -- -- 80
2020-03-16 13:00:00 5.2 18 Nordeste 48 Nordeste 0 -- -- 88
2020-03-16 12:00:00 4 17 Nordeste 41 Nordeste 0.2 -- -- 93
2020-03-16 11:00:00 3.1 13 Nordeste 36 Nordeste 0.6 -- -- 96
2020-03-16 10:00:00 2.5 8 Nordeste 28 Nordeste 1.2 -- -- 98
2020-03-16 09:00:00 2.2 9 Nordeste 28 Nordeste 0.8 -- -- 97
2020-03-16 08:00:00 2.2 8 Nordeste 36 Este 0.4 -- -- 95
2020-03-16 07:00:00 2.9 8 Nordeste 36 Nordeste 0.2 -- -- 93
2020-03-16 06:00:00 3.3 12 Nordeste 33 Norte 0 -- -- 86
2020-03-16 05:00:00 3.5 12 Nordeste 25 Nordeste 0 -- -- 88
2020-03-16 04:00:00 3.2 0 Calma 12 Sudoeste 0 -- -- 94
2020-03-16 03:00:00 2.9 7 Sudoeste 15 Oeste 0 -- -- 93
2020-03-16 02:00:00 3.3 7 Sur 17 Sudoeste 0.2 -- -- 91
2020-03-16 01:00:00 4 6 Oeste 19 Oeste 0 -- -- 84
2020-03-16 00:00:00 4.8 9 Oeste 28 Oeste 0 -- -- 79
2020-03-15 23:00:00 6.6 13 Oeste 30 Oeste 0 -- -- 73
2020-03-15 22:00:00 9 9 Sudoeste 13 Oeste 0 -- -- 72
2020-03-15 21:00:00 9.9 9 Oeste 14 Oeste 0 -- -- 68
2020-03-15 20:00:00 11.3 8 Oeste 24 Oeste 0 -- -- 69
2020-03-15 19:00:00 14 18 Oeste 29 Oeste 0 -- -- 62
2020-03-15 18:00:00 14.4 6 Oeste 27 Oeste 0 -- -- 72
2020-03-15 17:00:00 15.2 21 Oeste 54 Oeste 0 -- -- 61
2020-03-15 16:00:00 21.4 32 Oeste 49 Sudoeste 0 -- -- 30
2020-03-15 15:00:00 21.6 26 Sudoeste 51 Sudoeste 0 -- -- 36
2020-03-15 14:00:00 20.5 22 Oeste 41 Sudoeste 0 -- -- 38
2020-03-15 13:00:00 19.5 19 Oeste 36 Sudoeste 0 -- -- 38
2020-03-15 12:00:00 18 6 Oeste 15 Oeste 0 -- -- 43
2020-03-15 11:00:00 12.8 5 Nordeste 11 Nordeste 0 -- -- 55
2020-03-15 10:00:00 8.8 2 Este 12 Nordeste 0 -- -- 65
2020-03-15 09:00:00 1.8 4 Este 9 Este 0 -- -- 100
2020-03-15 08:00:00 -2.2 3 Este 5 Este 0 -- -- 100
2020-03-15 07:00:00 -2.8 0 Calma 3 Este 0 -- -- 100
2020-03-15 06:00:00 -1.9 0 Calma 7 Este 0 -- -- 100
2020-03-15 05:00:00 -2 3 Nordeste 7 Nordeste 0 -- -- 100
2020-03-15 04:00:00 -2 2 Este 5 Este 0 -- -- 99
2020-03-15 03:00:00 -1.8 0 Calma 4 Este 0 -- -- 98
2020-03-15 02:00:00 -1.4 0 Calma 5 Este 0 -- -- 98
2020-03-15 01:00:00 -1.2 0 Calma 3 Este 0 -- -- 95
2020-03-15 00:00:00 -0.1 0 Calma 2 Norte 0 -- -- 93
2020-03-14 23:00:00 0.9 0 Calma 3 Este 0 -- -- 88
2020-03-14 22:00:00 2.4 0 Calma 4 Este 0 -- -- 80
2020-03-14 21:00:00 4.8 0 Calma 6 Sudeste 0 -- -- 72
2020-03-14 20:00:00 7.8 5 Sudeste 8 Sudeste 0 -- -- 64
2020-03-14 19:00:00 19.8 2 Nordeste 11 Norte 0 -- -- 35
2020-03-14 18:00:00 20.4 5 Norte 13 Norte 0 -- -- 24
2020-03-14 17:00:00 20.8 5 Norte 12 Este 0 -- -- 24
2020-03-14 16:00:00 21.1 4 Sur 13 Sudoeste 0 -- -- 22
2020-03-14 15:00:00 20.7 4 Nordeste 14 Sudeste 0 -- -- 27
2020-03-14 14:00:00 19.2 3 Este 12 Nordeste 0 -- -- 33
2020-03-14 13:00:00 16.8 6 Este 14 Este 0 -- -- 44
2020-03-14 12:00:00 14.3 3 Nordeste 11 Nordeste 0 -- -- 49
2020-03-14 11:00:00 10.5 3 Nordeste 9 Este 0 -- -- 67
2020-03-14 10:00:00 5.7 3 Este 7 Este 0 -- -- 85
2020-03-14 09:00:00 0 0 Calma 4 Norte 0 -- -- 100
2020-03-14 08:00:00 -3.3 0 Calma 2 Este 0 -- -- 100
2020-03-14 07:00:00 -3.2 0 Calma 0 Calma 0 -- -- 100
2020-03-14 06:00:00 -2.6 0 Calma 3 Sudeste 0 -- -- 100
2020-03-14 05:00:00 -2.1 0 Calma 3 Sudeste 0 -- -- 100
2020-03-14 04:00:00 -1.8 0 Calma 4 Sudeste 0 -- -- 100
2020-03-14 03:00:00 -0.6 2 Sur 4 Sur 0 -- -- 100
2020-03-14 02:00:00 -0.1 0 Calma 3 Sudeste 0 -- -- 98
2020-03-14 01:00:00 1 0 Calma 5 Sur 0 -- -- 98
2020-03-14 00:00:00 2.4 0 Calma 5 Este 0 -- -- 98
2020-03-13 23:00:00 3.3 3 Este 5 Sudeste 0 -- -- 94
2020-03-13 22:00:00 5.5 0 Calma 13 Este 0 -- -- 87
2020-03-13 21:00:00 7.5 5 Nordeste 16 Nordeste 0 -- -- 81
2020-03-13 20:00:00 8.9 8 Nordeste 19 Este 0 -- -- 77
2020-03-13 19:00:00 12.2 8 Nordeste 21 Nordeste 0 -- -- 68
2020-03-13 18:00:00 13.6 14 Nordeste 28 Nordeste 0 -- -- 64
2020-03-13 17:00:00 15.1 14 Norte 26 Norte 0 -- -- 61
2020-03-13 16:00:00 17.9 12 Norte 24 Nordeste 0 -- -- 53
2020-03-13 15:00:00 18.8 11 Nordeste 24 Este 0 -- -- 50
2020-03-13 14:00:00 18.6 11 Nordeste 22 Norte 0 -- -- 52
2020-03-13 13:00:00 17.1 11 Nordeste 22 Este 0 -- -- 55
2020-03-13 12:00:00 16.3 8 Nordeste 23 Nordeste 0 -- -- 59
2020-03-13 11:00:00 13.8 11 Nordeste 28 Nordeste 0 -- -- 64
2020-03-13 10:00:00 10.2 14 Nordeste 29 Nordeste 0 -- -- 76
2020-03-13 09:00:00 8.5 9 Nordeste 26 Nordeste 0 -- -- 84
2020-03-13 08:00:00 7.5 13 Este 30 Este 0 -- -- 88
2020-03-13 07:00:00 7.2 12 Este 24 Nordeste 0 -- -- 90
2020-03-13 06:00:00 7.3 10 Este 21 Nordeste 0 -- -- 89
2020-03-13 05:00:00 7.8 6 Nordeste 23 Nordeste 0 -- -- 88
2020-03-13 04:00:00 8.4 7 Nordeste 23 Nordeste 0 -- -- 86
2020-03-13 03:00:00 8.7 12 Este 24 Este 0 -- -- 85
2020-03-13 02:00:00 8.9 10 Nordeste 26 Este 0 -- -- 87
2020-03-13 01:00:00 9.5 9 Nordeste 24 Este 0 -- -- 86
2020-03-13 00:00:00 9.6 9 Este 28 Este 0 -- -- 85
2020-03-12 23:00:00 10.1 9 Nordeste 24 Este 0 -- -- 85
2020-03-12 22:00:00 10.8 8 Nordeste 27 Este 0 -- -- 83
2020-03-12 21:00:00 11.4 8 Nordeste 30 Nordeste 0 -- -- 80
2020-03-12 20:00:00 13.2 13 Nordeste 27 Nordeste 0 -- -- 73
2020-03-12 19:00:00 16.1 9 Este 21 Nordeste 0 -- -- 67
2020-03-12 18:00:00 19.8 9 Nordeste 18 Nordeste 0 -- -- 58
2020-03-12 17:00:00 21.8 6 Noroeste 17 Noroeste 0 -- -- 40
2020-03-12 16:00:00 22.8 10 Oeste 23 Noroeste 0 -- -- 36
2020-03-12 15:00:00 23.8 11 Oeste 21 Oeste 0 -- -- 33
2020-03-12 14:00:00 25.1 5 Oeste 11 Noroeste 0 -- -- 41
2020-03-12 13:00:00 21.7 3 Norte 9 Este 0 -- -- 51
2020-03-12 12:00:00 17.2 4 Nordeste 10 Nordeste 0 -- -- 63
2020-03-12 11:00:00 14 3 Nordeste 13 Este 0 -- -- 73
2020-03-12 10:00:00 11 6 Nordeste 15 Este 0 -- -- 83
2020-03-12 09:00:00 8.4 9 Este 15 Este 0 -- -- 96
2020-03-12 08:00:00 6.1 5 Este 10 Este 0 -- -- 100
2020-03-12 07:00:00 5.8 3 Nordeste 5 Este 0 -- -- 99
2020-03-12 06:00:00 6.6 3 Este 7 Nordeste 0 -- -- 97
2020-03-12 05:00:00 7.6 4 Nordeste 7 Este 0 -- -- 96
2020-03-12 04:00:00 7.9 4 Este 6 Este 0 -- -- 94
2020-03-12 03:00:00 8.6 0 Calma 6 Nordeste 0 -- -- 91
2020-03-12 02:00:00 9.4 4 Este 9 Nordeste 0 -- -- 90
2020-03-12 01:00:00 9.2 5 Este 9 Este 0 -- -- 90
2020-03-12 00:00:00 9.8 0 Calma 4 Nordeste 0 -- -- 88
2020-03-11 23:00:00 10.4 2 Nordeste 4 Este 0 -- -- 86
2020-03-11 22:00:00 11.4 0 Calma 5 Este 0 -- -- 81
2020-03-11 21:00:00 12.3 3 Este 7 Sudeste 0 -- -- 78
2020-03-11 20:00:00 14.3 4 Este 6 Este 0 -- -- 71
2020-03-11 19:00:00 17.4 2 Sudeste 6 Oeste 0 -- -- 66
2020-03-11 18:00:00 22.2 5 Oeste 15 Oeste 0 -- -- 38
2020-03-11 17:00:00 23.8 9 Oeste 17 Oeste 0 -- -- 35
2020-03-11 16:00:00 24.5 10 Noroeste 18 Oeste 0 -- -- 32
2020-03-11 15:00:00 24.9 8 Oeste 19 Noroeste 0 -- -- 34
2020-03-11 14:00:00 23.3 9 Oeste 15 Oeste 0 -- -- 40
2020-03-11 13:00:00 22.7 8 Oeste 17 Oeste 0 -- -- 44
2020-03-11 12:00:00 20.5 3 Norte 8 Nordeste 0 -- -- 48
2020-03-11 11:00:00 15.3 5 Nordeste 9 Norte 0 -- -- 65
2020-03-11 10:00:00 10.4 4 Este 8 Este 0 -- -- 93
2020-03-11 09:00:00 4.1 0 Calma 5 Nordeste 0 -- -- 100
2020-03-11 08:00:00 -0.2 0 Calma 4 Nordeste 0 -- -- 100
2020-03-11 07:00:00 -0.4 2 Este 4 Este 0 -- -- 100
2020-03-11 06:00:00 -0.1 3 Nordeste 4 Este 0 -- -- 100
2020-03-11 05:00:00 0 0 Calma 3 Este 0 -- -- 100
2020-03-11 04:00:00 0.3 0 Calma 3 Nordeste 0 -- -- 100
2020-03-11 03:00:00 1.3 0 Calma 4 Nordeste 0 -- -- 100
2020-03-11 02:00:00 2.3 2 Nordeste 5 Nordeste 0 -- -- 100
2020-03-11 01:00:00 3.1 0 Calma 5 Este 0 -- -- 100
2020-03-11 00:00:00 4.2 0 Calma 4 Nordeste 0 -- -- 98
2020-03-10 23:00:00 5.3 0 Calma 4 Este 0 -- -- 97
2020-03-10 22:00:00 6.7 5 Este 6 Este 0 -- -- 94
2020-03-10 21:00:00 9 3 Sur 8 Sur 0 -- -- 89
2020-03-10 20:00:00 12.1 0 Calma 7 Sudoeste 0 -- -- 79
2020-03-10 19:00:00 20.9 4 Oeste 18 Oeste 0 -- -- 49
2020-03-10 18:00:00 22.6 10 Oeste 19 Oeste 0 -- -- 43
2020-03-10 17:00:00 22.1 14 Oeste 26 Oeste 0 -- -- 42
2020-03-10 16:00:00 21.7 15 Sudoeste 24 Oeste 0 -- -- 41
2020-03-10 15:00:00 21.2 15 Oeste 23 Sudoeste 0 -- -- 42
2020-03-10 14:00:00 19.1 13 Oeste 22 Sudoeste 0 -- -- 44
2020-03-10 13:00:00 16.9 7 Oeste 14 Oeste 0 -- -- 52
2020-03-10 12:00:00 15.7 5 Noroeste 10 Noroeste 0 -- -- 56
2020-03-10 11:00:00 12.6 2 Norte 6 Norte 0 -- -- 62
2020-03-10 10:00:00 8.1 2 Norte 5 Nordeste 0 -- -- 73
2020-03-10 09:00:00 3.2 2 Este 4 Este 0 -- -- 100
2020-03-10 08:00:00 0.1 0 Calma 3 Este 0 -- -- 100
2020-03-10 07:00:00 -0.4 0 Calma 4 Nordeste 0 -- -- 100
2020-03-10 06:00:00 -0.5 2 Este 3 Este 0 -- -- 100
2020-03-10 05:00:00 -0.3 0 Calma 2 Nordeste 0 -- -- 99
2020-03-10 04:00:00 0.2 0 Calma 2 Sur 0 -- -- 99
2020-03-10 03:00:00 0.6 0 Calma 2 Este 0 -- -- 99
2020-03-10 02:00:00 0.4 0 Calma 2 Este 0 -- -- 98
2020-03-10 01:00:00 0.7 0 Calma 3 Nordeste 0 -- -- 97
2020-03-10 00:00:00 1.3 2 Este 4 Este 0 -- -- 95
2020-03-09 23:00:00 1.8 3 Este 4 Nordeste 0 -- -- 93
2020-03-09 22:00:00 2.7 0 Calma 2 Norte 0 -- -- 89
2020-03-09 21:00:00 4.2 0 Calma 3 Sudoeste 0 -- -- 82
2020-03-09 20:00:00 6.4 0 Calma 6 Noroeste 0 -- -- 74
2020-03-09 19:00:00 13.5 3 Noroeste 14 Norte 0 -- -- 45
2020-03-09 18:00:00 15.5 8 Norte 23 Noroeste 0 -- -- 35
2020-03-09 17:00:00 15.8 13 Norte 23 Norte 0 -- -- 33
2020-03-09 16:00:00 16.8 6 Noroeste 26 Oeste 0 -- -- 36
2020-03-09 15:00:00 15.4 11 Oeste 22 Noroeste 0 -- -- 45
2020-03-09 14:00:00 14.2 10 Noroeste 21 Oeste 0 -- -- 48
2020-03-09 13:00:00 12.7 12 Oeste 22 Oeste 0 -- -- 56
2020-03-09 12:00:00 11 9 Oeste 21 Sudoeste 0 -- -- 65
2020-03-09 11:00:00 9 9 Oeste 17 Oeste 0 -- -- 73
2020-03-09 10:00:00 6.1 6 Sudoeste 10 Oeste 0 -- -- 98
2020-03-09 09:00:00 3.2 6 Sudoeste 9 Sudoeste 0 -- -- 100
2020-03-09 08:00:00 0.1 4 Sudoeste 6 Oeste 0 -- -- 100
2020-03-09 07:00:00 -0.3 0 Calma 2 Noroeste 0 -- -- 100
2020-03-09 06:00:00 0.9 4 Oeste 11 Sudoeste 0 -- -- 100
2020-03-09 05:00:00 2.4 8 Sudoeste 10 Sudoeste 0 -- -- 100
2020-03-09 04:00:00 1.3 0 Calma 8 Sudoeste 0 -- -- 100
2020-03-09 03:00:00 3.7 6 Sudoeste 9 Sudoeste 0 -- -- 98
2020-03-09 02:00:00 5.6 8 Sudoeste 19 Oeste 0 -- -- 97
2020-03-09 01:00:00 6.4 11 Sudoeste 19 Sudoeste 0 -- -- 98
2020-03-09 00:00:00 6.9 10 Oeste 21 Oeste 0 -- -- 95
2020-03-08 23:00:00 7 9 Oeste 17 Sudoeste 0 -- -- 94
2020-03-08 22:00:00 8.2 10 Sudoeste 24 Sudoeste 0 -- -- 87
2020-03-08 21:00:00 9.1 13 Sudoeste 23 Sudoeste 0 -- -- 85
2020-03-08 20:00:00 10.1 13 Sudoeste 24 Sudoeste 0 -- -- 81
2020-03-08 19:00:00 11.6 10 Sudoeste 25 Oeste 0 -- -- 75
2020-03-08 18:00:00 12.7 17 Oeste 28 Oeste 0 -- -- 66
2020-03-08 17:00:00 14.1 15 Oeste 23 Oeste 0 -- -- 56
2020-03-08 16:00:00 13.2 14 Oeste 24 Oeste 0 -- -- 55
2020-03-08 15:00:00 11.3 15 Sudoeste 23 Sudoeste 0 -- -- 61
2020-03-08 14:00:00 11 15 Sudoeste 26 Oeste 0 -- -- 65
2020-03-08 13:00:00 10.9 16 Sudoeste 27 Oeste 0 -- -- 66
2020-03-08 12:00:00 10.6 14 Oeste 20 Oeste 0 -- -- 70
2020-03-08 11:00:00 8.4 10 Sudoeste 15 Sudoeste 0 -- -- 79
2020-03-08 10:00:00 5.1 0 Calma 4 Sur 0 -- -- 97
2020-03-08 09:00:00 0.2 0 Calma 3 Norte 0 -- -- 100
2020-03-08 08:00:00 -3 0 Calma 3 Sudeste 0 -- -- 100
2020-03-08 07:00:00 -2.9 0 Calma 4 Sudeste 0 -- -- 100
2020-03-08 06:00:00 -2.3 0 Calma 3 Este 0 -- -- 100
2020-03-08 05:00:00 -1.9 0 Calma 5 Sur 0 -- -- 100
2020-03-08 04:00:00 -1.8 2 Este 4 Sudeste 0 -- -- 100
2020-03-08 03:00:00 -1.1 0 Calma 4 Nordeste 0 -- -- 100
2020-03-08 02:00:00 -1.3 0 Calma 6 Sudeste 0 -- -- 100
2020-03-08 01:00:00 -0.2 0 Calma 6 Nordeste 0 -- -- 100
2020-03-08 00:00:00 -0.1 2 Este 4 Este 0 -- -- 100
2020-03-07 23:00:00 0.3 3 Este 5 Este 0 -- -- 99
2020-03-07 22:00:00 1.4 0 Calma 2 Sudoeste 0 -- -- 97
2020-03-07 21:00:00 2.7 0 Calma 3 Noroeste 0 -- -- 94
2020-03-07 20:00:00 5.3 0 Calma 6 Sur 0 -- -- 86
2020-03-07 19:00:00 12.8 5 Oeste 12 Noroeste 0 -- -- 57
2020-03-07 18:00:00 14.2 8 Oeste 14 Oeste 0 -- -- 50
2020-03-07 17:00:00 15.1 7 Oeste 19 Oeste 0 -- -- 46
2020-03-07 16:00:00 14.7 7 Noroeste 18 Oeste 0 -- -- 50
2020-03-07 15:00:00 13.8 11 Oeste 20 Oeste 0 -- -- 54
2020-03-07 14:00:00 12.6 9 Noroeste 19 Oeste 0 -- -- 56
2020-03-07 13:00:00 12 7 Sur 14 Sudoeste 0 -- -- 59
2020-03-07 12:00:00 11 5 Noroeste 12 Oeste 0 -- -- 63
2020-03-07 11:00:00 9.2 2 Sur 6 Sudoeste 0 -- -- 66
2020-03-07 10:00:00 5.6 0 Calma 4 Este 0 -- -- 76
2020-03-07 09:00:00 0.1 3 Este 5 Nordeste 0 -- -- 99
2020-03-07 08:00:00 -2.5 0 Calma 0 Calma 0 -- -- 99
2020-03-07 07:00:00 -2.7 0 Calma 3 Este 0 -- -- 98
2020-03-07 06:00:00 -2 0 Calma 3 Oeste 0 -- -- 95
2020-03-07 05:00:00 -1.2 0 Calma 13 Sudoeste 0 -- -- 91
2020-03-07 04:00:00 0.9 7 Sudoeste 14 Sudoeste 0 -- -- 85
2020-03-07 03:00:00 1.2 6 Sudoeste 11 Sudoeste 0 -- -- 82
2020-03-07 02:00:00 1.6 9 Sudoeste 13 Sudoeste 0 -- -- 81
2020-03-07 01:00:00 1.3 4 Sudoeste 9 Sudoeste 0 -- -- 84
2020-03-07 00:00:00 1.1 5 Sudoeste 8 Sudoeste 0 -- -- 84
2020-03-06 23:00:00 0 0 Calma 8 Noroeste 0 -- -- 85
2020-03-06 22:00:00 3.5 4 Noroeste 10 Oeste 0 -- -- 67
2020-03-06 21:00:00 4.9 4 Noroeste 17 Noroeste 0 -- -- 59
2020-03-06 20:00:00 6.4 6 Noroeste 23 Noroeste 0 -- -- 52
2020-03-06 19:00:00 8.6 10 Noroeste 32 Noroeste 0 -- -- 49
2020-03-06 18:00:00 10.6 16 Oeste 31 Norte 0 -- -- 48
2020-03-06 17:00:00 9.7 17 Noroeste 35 Noroeste 0 -- -- 44
2020-03-06 16:00:00 10 17 Noroeste 35 Oeste 0 -- -- 45
2020-03-06 15:00:00 9.5 17 Noroeste 41 Noroeste 0 -- -- 51
2020-03-06 14:00:00 10.4 18 Noroeste 41 Noroeste 0 -- -- 46
2020-03-06 13:00:00 8.2 21 Noroeste 45 Oeste 0 -- -- 52
2020-03-06 12:00:00 8 22 Noroeste 42 Oeste 0 -- -- 62
2020-03-06 11:00:00 6.7 22 Oeste 39 Oeste 0 -- -- 69
2020-03-06 10:00:00 5.5 21 Oeste 37 Oeste 0 -- -- 78
2020-03-06 09:00:00 4.5 22 Oeste 39 Oeste 0 -- -- 85
2020-03-06 08:00:00 3.9 20 Oeste 38 Oeste 0 -- -- 86
2020-03-06 07:00:00 4.5 17 Oeste 33 Oeste 0 -- -- 86
2020-03-06 06:00:00 4.7 19 Oeste 34 Oeste 0 -- -- 90
2020-03-06 05:00:00 5.4 18 Oeste 31 Oeste 0 -- -- 90
2020-03-06 04:00:00 4.9 15 Oeste 30 Oeste 0 -- -- 92
2020-03-06 03:00:00 4.9 16 Oeste 29 Sudoeste 0 -- -- 90
2020-03-06 02:00:00 4.6 14 Sudoeste 22 Sudoeste 0 -- -- 88
2020-03-06 01:00:00 4.5 12 Oeste 24 Oeste 0 -- -- 87
2020-03-06 00:00:00 5.3 18 Oeste 27 Oeste 0 -- -- 87
2020-03-05 23:00:00 5.7 9 Oeste 27 Oeste 0 -- -- 82
2020-03-05 22:00:00 6.9 15 Oeste 26 Oeste 0 -- -- 76
2020-03-05 21:00:00 7.9 12 Oeste 27 Noroeste 0 -- -- 72
2020-03-05 20:00:00 8.4 11 Noroeste 22 Noroeste 0 -- -- 72
2020-03-05 19:00:00 9.8 10 Oeste 25 Oeste 0 -- -- 74
2020-03-05 18:00:00 9 12 Sudoeste 44 Oeste 2.4 -- -- 89
2020-03-05 17:00:00 11.4 20 Oeste 47 Oeste 0 -- -- 68
2020-03-05 16:00:00 12.5 30 Oeste 50 Oeste 0 -- -- 58
2020-03-05 15:00:00 12.7 32 Oeste 48 Sudoeste 0 -- -- 58
2020-03-05 14:00:00 11.4 27 Oeste 48 Oeste 0 -- -- 62
2020-03-05 13:00:00 11.5 29 Oeste 54 Sudoeste 0 -- -- 61
2020-03-05 12:00:00 11.4 36 Oeste 63 Oeste 0 -- -- 63
2020-03-05 11:00:00 9.8 36 Oeste 57 Oeste 0 -- -- 77
2020-03-05 10:00:00 8.9 32 Oeste 65 Sudoeste 0.4 -- -- 79
2020-03-05 09:00:00 11 33 Sudoeste 56 Sudoeste 0 -- -- 87
2020-03-05 08:00:00 10.9 29 Sudoeste 45 Sudoeste 0 -- -- 84
2020-03-05 07:00:00 11 23 Sudoeste 37 Sudoeste 0 -- -- 85
2020-03-05 06:00:00 11.1 24 Sudoeste 36 Sudoeste 0 -- -- 87
2020-03-05 05:00:00 10.5 23 Sudoeste 43 Sudoeste 0 -- -- 93
2020-03-05 04:00:00 11.5 26 Sudoeste 43 Sudoeste 0 -- -- 85
2020-03-05 03:00:00 11.5 23 Sudoeste 46 Sudoeste 0 -- -- 86
2020-03-05 02:00:00 11.5 18 Sudoeste 33 Sudoeste 0 -- -- 86
2020-03-05 01:00:00 11.5 17 Sudoeste 31 Sudoeste 0 -- -- 87
2020-03-05 00:00:00 11.5 16 Sudoeste 28 Sudoeste 0 -- -- 87
2020-03-04 23:00:00 11.8 18 Sudoeste 26 Sudoeste 0 -- -- 85
2020-03-04 22:00:00 11.8 18 Sudoeste 26 Sudoeste 0 -- -- 83
2020-03-04 21:00:00 12.1 15 Sudoeste 24 Sudoeste 0 -- -- 81
2020-03-04 20:00:00 11.9 12 Sudoeste 25 Sudoeste 0 -- -- 80
2020-03-04 19:00:00 13.4 17 Oeste 33 Oeste 0 -- -- 72
2020-03-04 18:00:00 14.2 13 Oeste 31 Oeste 0 -- -- 70
2020-03-04 17:00:00 15 21 Oeste 33 Sudoeste 0 -- -- 66
2020-03-04 16:00:00 14.8 18 Oeste 35 Oeste 0 -- -- 68
2020-03-04 15:00:00 14.8 21 Oeste 32 Oeste 0 -- -- 66
2020-03-04 14:00:00 13.9 20 Oeste 34 Oeste 0 -- -- 70
2020-03-04 13:00:00 14.3 22 Oeste 37 Sudoeste 0 -- -- 69
2020-03-04 12:00:00 13.1 22 Oeste 35 Oeste 0 -- -- 76
2020-03-04 11:00:00 12.3 19 Oeste 32 Sudoeste 0 -- -- 81
2020-03-04 10:00:00 11.5 16 Oeste 30 Oeste 0 -- -- 86
2020-03-04 09:00:00 11.1 16 Sudoeste 23 Sudoeste 0 -- -- 89
2020-03-04 08:00:00 10.8 15 Sudoeste 28 Sudoeste 0 -- -- 89
2020-03-04 07:00:00 11.1 17 Sudoeste 32 Oeste 0 -- -- 90
2020-03-04 06:00:00 11.4 22 Sudoeste 34 Sudoeste 0 -- -- 91
2020-03-04 05:00:00 11.4 21 Sudoeste 31 Oeste 0 -- -- 94
2020-03-04 04:00:00 11.5 19 Sudoeste 31 Sudoeste 0 -- -- 93
2020-03-04 03:00:00 11.2 18 Sudoeste 29 Oeste 0 -- -- 95
2020-03-04 02:00:00 11.6 19 Oeste 30 Oeste 0 -- -- 92
2020-03-04 01:00:00 11.4 13 Oeste 23 Oeste 0 -- -- 92
2020-03-04 00:00:00 11.5 15 Oeste 25 Oeste 0 -- -- 87
2020-03-03 23:00:00 11.4 15 Oeste 25 Oeste 0 -- -- 83
2020-03-03 22:00:00 11.8 9 Oeste 23 Oeste 0 -- -- 74
2020-03-03 21:00:00 12.5 13 Oeste 25 Oeste 0 -- -- 80
2020-03-03 20:00:00 13.3 13 Oeste 26 Oeste 0 -- -- 78
2020-03-03 19:00:00 14.8 15 Oeste 35 Oeste 0 -- -- 68
2020-03-03 18:00:00 16.5 21 Oeste 41 Oeste 0 -- -- 60
2020-03-03 17:00:00 17.9 27 Oeste 51 Oeste 0 -- -- 57
2020-03-03 16:00:00 17.5 29 Oeste 54 Oeste 0 -- -- 66
2020-03-03 15:00:00 16.6 31 Oeste 59 Oeste 0 -- -- 68
2020-03-03 14:00:00 14 32 Oeste 56 Sudoeste 0 -- -- 81
2020-03-03 13:00:00 10.8 28 Oeste 49 Sudoeste 0 -- -- 92
2020-03-03 12:00:00 9 27 Oeste 48 Sudoeste 0 -- -- 97
2020-03-03 11:00:00 8 25 Sudoeste 45 Sudoeste 0 -- -- 97
2020-03-03 10:00:00 7 25 Sudoeste 44 Sudoeste 0 -- -- 96
2020-03-03 09:00:00 6.4 30 Sudoeste 46 Sudoeste 0 -- -- 96
2020-03-03 08:00:00 6 23 Oeste 47 Sudoeste 0 -- -- 95
2020-03-03 07:00:00 5.2 19 Sudoeste 36 Sudoeste 0.4 -- -- 96
2020-03-03 06:00:00 4.9 18 Sudoeste 32 Sudoeste 0.6 -- -- 94
2020-03-03 05:00:00 5.3 22 Sudoeste 35 Sudoeste 0 -- -- 88
2020-03-03 04:00:00 5.1 22 Sudoeste 36 Sudoeste 0 -- -- 85
2020-03-03 03:00:00 5.3 21 Sudoeste 32 Sudoeste 0 -- -- 81
2020-03-03 02:00:00 5 20 Sudoeste 32 Sudoeste 0 -- -- 81
2020-03-03 01:00:00 4.5 16 Sudoeste 28 Sudoeste 0 -- -- 82
2020-03-03 00:00:00 3.8 12 Sudoeste 26 Sudoeste 0 -- -- 84
2020-03-02 23:00:00 3.9 12 Sudoeste 24 Oeste 0 -- -- 81
2020-03-02 22:00:00 3.8 10 Sudoeste 14 Sudoeste 0 -- -- 81
2020-03-02 21:00:00 3.2 6 Sudoeste 11 Sudoeste 0 -- -- 80
2020-03-02 20:00:00 5.3 6 Oeste 31 Oeste 0 -- -- 66
2020-03-02 19:00:00 7 18 Oeste 32 Oeste 0 -- -- 55
2020-03-02 18:00:00 8.9 17 Noroeste 42 Oeste 0 -- -- 55
2020-03-02 17:00:00 9.2 23 Noroeste 48 Oeste 0 -- -- 54
2020-03-02 16:00:00 9.4 26 Noroeste 61 Noroeste 0 -- -- 52
2020-03-02 15:00:00 9.2 30 Noroeste 59 Oeste 0 -- -- 58
2020-03-02 14:00:00 7 24 Oeste 51 Noroeste 1 -- -- 74
2020-03-02 13:00:00 6.3 17 Oeste 44 Oeste 0.8 -- -- 85
2020-03-02 12:00:00 7.9 23 Oeste 43 Oeste 0 -- -- 71
2020-03-02 11:00:00 7.7 23 Oeste 43 Oeste 0.2 -- -- 78
2020-03-02 10:00:00 6.3 22 Oeste 36 Oeste 0 -- -- 84
2020-03-02 09:00:00 5.4 20 Oeste 49 Oeste 0.4 -- -- 89
2020-03-02 08:00:00 6.6 26 Oeste 46 Oeste 0 -- -- 80
2020-03-02 07:00:00 7.9 27 Oeste 63 Oeste 0 -- -- 75
2020-03-02 06:00:00 9.4 36 Oeste 66 Oeste 0 -- -- 68
2020-03-02 05:00:00 9.8 52 Oeste 91 Sudoeste 0.6 -- -- 78
2020-03-02 04:00:00 10.7 46 Sudoeste 79 Sudoeste 0 -- -- 86
2020-03-02 03:00:00 11.3 54 Sudoeste 83 Sudoeste 0 -- -- 81
2020-03-02 02:00:00 10.6 37 Sudoeste 62 Sudoeste 0 -- -- 87
2020-03-02 01:00:00 10.4 37 Sudoeste 80 Sudoeste 1 -- -- 92
2020-03-02 00:00:00 10.3 36 Sudoeste 54 Sudoeste 1.6 -- -- 94
2020-03-01 23:00:00 10.2 24 Sudoeste 39 Sudoeste 3.6 -- -- 99
2020-03-01 22:00:00 9.1 13 Oeste 21 Oeste 2.6 -- -- 98
2020-03-01 21:00:00 9 18 Oeste 40 Sudoeste 1.2 -- -- 92
2020-03-01 20:00:00 12.9 27 Sudoeste 43 Sudoeste 0 -- -- 60
2020-03-01 19:00:00 12.8 18 Oeste 47 Oeste 0 -- -- 52
2020-03-01 18:00:00 14.6 20 Oeste 60 Sudoeste 0 -- -- 47
2020-03-01 17:00:00 15.5 32 Sudoeste 60 Sudoeste 0 -- -- 51
2020-03-01 16:00:00 16.7 31 Oeste 60 Oeste 0 -- -- 46
2020-03-01 15:00:00 14.5 29 Sudoeste 50 Oeste 0 -- -- 63
2020-03-01 14:00:00 15.1 26 Sudoeste 45 Oeste 0 -- -- 64
2020-03-01 13:00:00 13.3 26 Oeste 46 Oeste 0 -- -- 70
2020-03-01 12:00:00 10.4 19 Oeste 38 Sudoeste 0.2 -- -- 93
2020-03-01 11:00:00 10.4 22 Sudoeste 41 Sudoeste 0 -- -- 82
2020-03-01 10:00:00 8.6 19 Sudoeste 40 Sudoeste 0.2 -- -- 90
2020-03-01 09:00:00 7.5 22 Sudoeste 45 Sudoeste 0 -- -- 93
2020-03-01 08:00:00 7.8 31 Sudoeste 53 Sudoeste 0 -- -- 87
2020-03-01 07:00:00 7.6 24 Sudoeste 39 Sudoeste 0 -- -- 85
2020-03-01 06:00:00 7.4 29 Sudoeste 44 Sudoeste 0 -- -- 86
2020-03-01 05:00:00 7.1 21 Sudoeste 38 Oeste 0 -- -- 89
2020-03-01 04:00:00 7 17 Sudoeste 32 Sudoeste 0 -- -- 87
2020-03-01 03:00:00 6.9 11 Oeste 34 Oeste 0 -- -- 87
2020-03-01 02:00:00 7.6 21 Sudoeste 33 Sudoeste 0 -- -- 82
2020-03-01 01:00:00 7.3 17 Sudoeste 31 Sudoeste 0 -- -- 86
2020-03-01 00:00:00 7.9 18 Sudoeste 32 Sudoeste 0 -- -- 78
2020-02-29 23:00:00 8.4 21 Sudoeste 31 Sudoeste 0 -- -- 73
2020-02-29 22:00:00 7.8 15 Sudoeste 28 Sudoeste 0 -- -- 72
2020-02-29 21:00:00 8.2 23 Sudoeste 35 Sudoeste 0 -- -- 66
2020-02-29 20:00:00 8.9 16 Oeste 45 Oeste 0 -- -- 63
2020-02-29 19:00:00 10.1 21 Oeste 38 Oeste 0 -- -- 59
2020-02-29 18:00:00 11 26 Oeste 51 Oeste 0 -- -- 58
2020-02-29 17:00:00 12.5 28 Oeste 52 Oeste 0 -- -- 56
2020-02-29 16:00:00 12.7 30 Oeste 50 Oeste 0 -- -- 65
2020-02-29 15:00:00 11.9 26 Oeste 48 Sudoeste 0.4 -- -- 82
2020-02-29 14:00:00 11.8 32 Sudoeste 53 Sudoeste 0 -- -- 86
2020-02-29 13:00:00 12.5 35 Sudoeste 53 Sudoeste 0 -- -- 75
2020-02-29 12:00:00 11.9 26 Sudoeste 43 Sudoeste 0 -- -- 75
2020-02-29 11:00:00 11.2 26 Sudoeste 46 Sudoeste 0 -- -- 72
2020-02-29 10:00:00 9.9 18 Sudoeste 40 Sudoeste 0 -- -- 75
2020-02-29 09:00:00 8.4 28 Sudoeste 49 Sudoeste 0 -- -- 73
2020-02-29 08:00:00 8.5 25 Sudoeste 42 Sudoeste 0 -- -- 69
2020-02-29 07:00:00 7.9 15 Sudoeste 31 Sur 0 -- -- 69
2020-02-29 06:00:00 8.6 26 Sudoeste 36 Sudoeste 0 -- -- 64
2020-02-29 05:00:00 9.4 21 Sudoeste 41 Sudoeste 0 -- -- 68
2020-02-29 04:00:00 10.4 24 Sudoeste 39 Sudoeste 0 -- -- 63
2020-02-29 03:00:00 10.9 19 Sudoeste 40 Sudoeste 0 -- -- 59
2020-02-29 02:00:00 11.1 22 Sudoeste 37 Oeste 0 -- -- 55
2020-02-29 01:00:00 8.5 4 Oeste 20 Sudoeste 0 -- -- 66
2020-02-29 00:00:00 8.7 8 Oeste 18 Oeste 0 -- -- 61